createdAt,value
2022-09-01T00:00:21.498Z,14.08
2022-09-01T00:02:51.761Z,14.01
2022-09-01T00:05:21.761Z,13.97
2022-09-01T00:07:51.843Z,14.00
2022-09-01T00:10:23.534Z,13.98
2022-09-01T00:12:53.699Z,14.04
2022-09-01T00:15:24.088Z,14.08
2022-09-01T00:17:54.376Z,14.03
2022-09-01T00:20:24.677Z,13.89
2022-09-01T00:22:54.637Z,13.79
2022-09-01T00:25:28.264Z,13.84
2022-09-01T00:28:00.831Z,13.89
2022-09-01T00:30:30.741Z,13.92
2022-09-01T00:33:00.644Z,13.80
2022-09-01T00:35:30.741Z,13.67
2022-09-01T00:38:06.931Z,13.55
2022-09-01T00:40:38.446Z,13.50
2022-09-01T00:43:16.860Z,13.53
2022-09-01T00:45:46.945Z,13.58
2022-09-01T00:48:16.986Z,13.55
2022-09-01T00:52:28.397Z,13.55
2022-09-01T00:55:04.366Z,13.61
2022-09-01T00:57:34.403Z,13.67
2022-09-01T01:00:13.720Z,13.64
2022-09-01T01:02:45.373Z,13.63
2022-09-01T01:05:16.874Z,13.57
2022-09-01T01:07:48.636Z,13.57
2022-09-01T01:10:22.656Z,13.48
2022-09-01T01:12:54.454Z,13.52
2022-09-01T01:15:24.411Z,13.60
2022-09-01T01:17:54.218Z,13.60
2022-09-01T01:20:46.337Z,13.54
2022-09-01T01:23:27.076Z,13.54
2022-09-01T01:26:01.376Z,13.58
2022-09-01T01:28:34.927Z,13.54
2022-09-01T01:31:12.258Z,13.40
2022-09-01T01:33:46.896Z,13.35
2022-09-01T01:36:21.956Z,13.44
2022-09-01T01:38:53.532Z,13.45
2022-09-01T01:41:25.060Z,13.49
2022-09-01T01:43:54.892Z,13.54
2022-09-01T01:46:26.494Z,13.52
2022-09-01T01:48:56.696Z,13.52
2022-09-01T01:51:28.838Z,13.45
2022-09-01T01:53:59.972Z,13.39
2022-09-01T01:56:31.738Z,13.40
2022-09-01T01:59:02.344Z,13.44
2022-09-01T02:01:33.065Z,13.41
2022-09-01T02:04:06.083Z,13.40
2022-09-01T02:06:37.373Z,13.37
2022-09-01T02:09:07.273Z,13.38
2022-09-01T02:11:39.177Z,13.41
2022-09-01T02:14:10.536Z,13.43
2022-09-01T02:16:40.907Z,13.45
2022-09-01T02:19:12.600Z,13.39
2022-09-01T02:21:45.033Z,13.35
2022-09-01T02:24:14.413Z,13.33
2022-09-01T02:26:49.413Z,13.33
2022-09-01T02:29:23.245Z,13.32
2022-09-01T02:31:56.023Z,13.22
2022-09-01T02:34:29.215Z,13.13
2022-09-01T02:37:00.301Z,13.18
2022-09-01T02:39:33.872Z,13.11
2022-09-01T02:42:05.432Z,12.95
2022-09-01T02:44:39.492Z,12.91
2022-09-01T02:47:11.294Z,13.02
2022-09-01T02:49:43.365Z,13.11
2022-09-01T02:52:16.317Z,13.15
2022-09-01T02:54:46.897Z,13.16
2022-09-01T02:57:18.537Z,13.04
2022-09-01T02:59:48.857Z,13.02
2022-09-01T03:02:18.632Z,12.99
2022-09-01T03:04:53.269Z,13.05
2022-09-01T03:07:24.335Z,13.11
2022-09-01T03:09:54.295Z,13.02
2022-09-01T03:12:25.565Z,12.91
2022-09-01T03:14:55.364Z,12.89
2022-09-01T03:17:25.071Z,12.96
2022-09-01T03:19:55.112Z,12.96
2022-09-01T03:22:58.377Z,12.88
2022-09-01T03:25:30.039Z,12.89
2022-09-01T03:28:03.122Z,12.93
2022-09-01T03:30:36.765Z,13.00
2022-09-01T03:33:06.660Z,12.95
2022-09-01T03:35:37.628Z,12.94
2022-09-01T03:38:09.013Z,13.00
2022-09-01T03:40:40.264Z,13.01
2022-09-01T03:43:13.323Z,12.89
2022-09-01T03:45:44.276Z,12.84
2022-09-01T03:48:16.731Z,12.88
2022-09-01T03:53:27.795Z,12.97
2022-09-01T03:55:57.852Z,13.06
2022-09-01T03:58:28.778Z,13.07
2022-09-01T04:01:03.339Z,13.01
2022-09-01T04:03:37.096Z,12.80
2022-09-01T04:06:13.045Z,12.73
2022-09-01T04:08:44.563Z,12.74
2022-09-01T04:11:19.471Z,12.90
2022-09-01T04:13:50.863Z,12.89
2022-09-01T04:16:41.116Z,12.89
2022-09-01T04:19:20.878Z,12.96
2022-09-01T04:21:52.211Z,13.06
2022-09-01T04:24:25.735Z,13.10
2022-09-01T04:26:56.656Z,13.18
2022-09-01T04:29:28.741Z,13.18
2022-09-01T04:32:02.422Z,13.20
2022-09-01T04:34:37.686Z,13.28
2022-09-01T04:37:13.466Z,13.33
2022-09-01T04:39:52.559Z,13.33
2022-09-01T04:42:27.520Z,13.41
2022-09-01T04:45:05.070Z,13.50
2022-09-01T04:47:42.495Z,13.58
2022-09-01T04:50:17.987Z,13.66
2022-09-01T04:52:49.276Z,13.74
2022-09-01T04:55:20.832Z,13.87
2022-09-01T04:57:52.701Z,14.02
2022-09-01T05:00:25.843Z,14.22
2022-09-01T05:03:03.519Z,14.42
2022-09-01T05:05:43.397Z,14.61
2022-09-01T05:08:22.114Z,14.76
2022-09-01T05:10:57.198Z,14.92
2022-09-01T05:13:27.612Z,15.04
2022-09-01T05:16:06.562Z,15.24
2022-09-01T05:18:36.596Z,15.43
2022-09-01T05:21:11.218Z,15.57
2022-09-01T05:23:41.660Z,15.76
2022-09-01T05:26:18.873Z,15.92
2022-09-01T05:28:51.016Z,16.11
2022-09-01T05:31:21.305Z,16.30
2022-09-01T05:33:53.296Z,16.46
2022-09-01T05:36:25.157Z,16.62
2022-09-01T05:38:55.137Z,16.79
2022-09-01T05:41:26.639Z,16.91
2022-09-01T05:44:00.522Z,16.98
2022-09-01T05:46:31.747Z,17.12
2022-09-01T05:49:01.913Z,17.30
2022-09-01T05:51:45.712Z,17.52
2022-09-01T05:54:16.828Z,17.66
2022-09-01T05:56:49.377Z,17.69
2022-09-01T05:59:23.057Z,17.79
2022-09-01T06:01:54.389Z,17.97
2022-09-01T06:04:26.388Z,18.05
2022-09-01T06:07:06.817Z,18.08
2022-09-01T06:09:41.836Z,18.12
2022-09-01T06:12:18.621Z,18.14
2022-09-01T06:14:50.028Z,18.19
2022-09-01T06:17:25.540Z,18.26
2022-09-01T06:19:56.598Z,18.42
2022-09-01T06:22:28.623Z,18.60
2022-09-01T06:25:03.259Z,18.78
2022-09-01T06:27:39.059Z,18.98
2022-09-01T06:30:15.458Z,19.11
2022-09-01T06:32:46.013Z,19.20
2022-09-01T06:35:18.271Z,19.31
2022-09-01T06:37:48.958Z,19.55
2022-09-01T06:40:19.544Z,19.77
2022-09-01T06:42:53.462Z,20.00
2022-09-01T06:45:25.539Z,20.16
2022-09-01T06:47:59.768Z,20.36
2022-09-01T06:53:38.976Z,20.89
2022-09-01T06:56:13.424Z,21.08
2022-09-01T06:58:49.195Z,21.24
2022-09-01T07:01:22.523Z,21.42
2022-09-01T07:03:54.596Z,21.53
2022-09-01T07:12:27.947Z,21.87
2022-09-01T07:17:54.074Z,22.16
2022-09-01T07:20:27.341Z,22.29
2022-09-01T07:23:04.712Z,22.40
2022-09-01T07:26:00.937Z,22.59
2022-09-01T07:28:36.637Z,22.61
2022-09-01T07:39:51.165Z,23.21
2022-09-01T07:45:32.887Z,23.38
2022-09-01T07:48:03.824Z,23.50
2022-09-01T07:51:35.093Z,23.59
2022-09-01T07:53:27.153Z,23.70
2022-09-01T07:55:58.813Z,23.79
2022-09-01T07:58:33.954Z,23.86
2022-09-01T08:01:04.252Z,24.04
2022-09-01T08:03:34.276Z,24.11
2022-09-01T08:06:08.181Z,24.13
2022-09-01T08:08:40.073Z,24.18
2022-09-01T08:11:10.976Z,24.23
2022-09-01T08:13:42.248Z,24.14
2022-09-01T08:16:18.247Z,24.17
2022-09-01T08:18:49.701Z,24.28
2022-09-01T08:21:23.894Z,24.43
2022-09-01T08:23:55.738Z,24.35
2022-09-01T08:26:28.152Z,24.42
2022-09-01T08:28:59.581Z,24.56
2022-09-01T08:31:30.997Z,24.75
2022-09-01T08:34:01.617Z,24.80
2022-09-01T08:36:31.693Z,24.78
2022-09-01T08:39:01.636Z,24.89
2022-09-01T08:41:47.075Z,25.00
2022-09-01T08:44:33.441Z,24.86
2022-09-01T08:47:07.478Z,24.80
2022-09-01T08:49:43.559Z,24.57
2022-09-01T08:52:25.498Z,24.74
2022-09-01T08:55:02.562Z,24.89
2022-09-01T08:57:36.917Z,24.88
2022-09-01T09:00:13.838Z,25.06
2022-09-01T09:03:02.844Z,25.03
2022-09-01T09:05:44.915Z,25.17
2022-09-01T09:08:33.582Z,24.97
2022-09-01T09:11:07.556Z,25.03
2022-09-01T09:13:56.928Z,25.33
2022-09-01T09:16:34.593Z,25.36
2022-09-01T09:19:10.865Z,25.39
2022-09-01T09:21:43.316Z,25.44
2022-09-01T09:24:23.379Z,25.56
2022-09-01T09:26:54.603Z,25.70
2022-09-01T09:29:24.861Z,25.79
2022-09-01T09:32:22.543Z,25.97
2022-09-01T09:34:53.758Z,26.12
2022-09-01T09:37:27.754Z,26.15
2022-09-01T09:40:12.164Z,26.23
2022-09-01T09:42:47.340Z,26.28
2022-09-01T09:45:27.858Z,26.31
2022-09-01T09:48:00.566Z,26.39
2022-09-01T09:53:34.500Z,26.22
2022-09-01T09:56:10.445Z,26.06
2022-09-01T09:58:44.077Z,26.11
2022-09-01T10:01:17.784Z,26.16
2022-09-01T10:03:50.712Z,26.17
2022-09-01T10:06:36.605Z,25.96
2022-09-01T10:09:11.174Z,25.95
2022-09-01T10:11:44.455Z,26.03
2022-09-01T10:14:35.448Z,26.33
2022-09-01T10:17:17.950Z,26.61
2022-09-01T10:19:57.492Z,26.58
2022-09-01T10:22:28.754Z,26.72
2022-09-01T10:25:01.012Z,26.84
2022-09-01T10:27:35.564Z,26.87
2022-09-01T10:30:18.903Z,26.90
2022-09-01T10:32:55.295Z,26.86
2022-09-01T10:35:31.075Z,26.95
2022-09-01T10:38:06.694Z,26.90
2022-09-01T10:40:49.174Z,26.83
2022-09-01T10:43:38.186Z,26.82
2022-09-01T10:46:49.393Z,26.92
2022-09-01T10:50:00.084Z,27.16
2022-09-01T10:52:58.473Z,26.98
2022-09-01T10:55:43.029Z,26.94
2022-09-01T11:02:26.037Z,27.36
2022-09-01T11:05:19.999Z,27.43
2022-09-01T11:08:01.463Z,27.21
2022-09-01T11:10:49.223Z,27.12
2022-09-01T11:13:36.812Z,27.22
2022-09-01T11:16:50.498Z,27.40
2022-09-01T11:19:44.551Z,27.58
2022-09-01T11:22:29.156Z,27.45
2022-09-01T11:25:44.004Z,27.37
2022-09-01T11:28:48.055Z,27.46
2022-09-01T11:31:37.153Z,27.73
2022-09-01T11:34:21.179Z,27.95
2022-09-01T11:37:00.536Z,28.05
2022-09-01T11:39:44.395Z,28.06
2022-09-01T11:42:22.061Z,28.02
2022-09-01T11:45:02.503Z,28.05
2022-09-01T11:47:38.299Z,28.13
2022-09-01T11:50:19.716Z,28.14
2022-09-01T11:53:04.093Z,28.16
2022-09-01T11:55:37.086Z,28.37
2022-09-01T11:58:07.996Z,28.38
2022-09-01T12:00:43.133Z,28.25
2022-09-01T12:03:25.020Z,28.36
2022-09-01T12:05:59.896Z,28.49
2022-09-01T12:08:34.342Z,28.73
2022-09-01T12:11:07.662Z,28.80
2022-09-01T12:13:38.434Z,28.88
2022-09-01T12:16:18.392Z,28.92
2022-09-01T12:18:51.786Z,28.89
2022-09-01T12:21:26.317Z,28.90
2022-09-01T12:23:57.573Z,28.65
2022-09-01T12:26:30.975Z,28.63
2022-09-01T12:29:01.296Z,28.59
2022-09-01T12:31:32.802Z,28.64
2022-09-01T12:34:05.158Z,28.63
2022-09-01T12:36:37.251Z,28.63
2022-09-01T12:39:25.773Z,28.72
2022-09-01T12:42:14.846Z,28.64
2022-09-01T12:44:52.551Z,28.35
2022-09-01T12:47:50.991Z,28.20
2022-09-01T12:53:30.549Z,27.59
2022-09-01T12:56:30.176Z,27.44
2022-09-01T12:59:15.588Z,27.19
2022-09-01T13:01:47.418Z,27.09
2022-09-01T13:04:31.297Z,27.00
2022-09-01T13:07:06.872Z,26.57
2022-09-01T13:09:38.372Z,26.38
2022-09-01T13:12:20.462Z,26.22
2022-09-01T13:14:51.157Z,26.18
2022-09-01T13:17:23.999Z,26.16
2022-09-01T13:19:54.197Z,26.23
2022-09-01T13:22:24.176Z,26.30
2022-09-01T13:24:56.950Z,26.24
2022-09-01T13:27:26.995Z,26.15
2022-09-01T13:29:57.105Z,26.04
2022-09-01T13:32:27.346Z,26.00
2022-09-01T13:34:57.284Z,26.12
2022-09-01T13:37:27.773Z,26.31
2022-09-01T13:39:59.177Z,26.30
2022-09-01T13:42:29.176Z,26.20
2022-09-01T13:44:59.044Z,26.27
2022-09-01T13:47:30.089Z,26.25
2022-09-01T13:50:11.179Z,26.27
2022-09-01T13:52:44.594Z,26.36
2022-09-01T13:55:18.812Z,26.38
2022-09-01T13:57:51.535Z,26.39
2022-09-01T14:00:27.097Z,26.38
2022-09-01T14:03:00.635Z,26.30
2022-09-01T14:05:34.444Z,26.20
2022-09-01T14:08:05.096Z,26.01
2022-09-01T14:10:42.352Z,25.76
2022-09-01T14:13:13.216Z,25.70
2022-09-01T14:15:43.415Z,25.51
2022-09-01T14:18:14.369Z,25.29
2022-09-01T14:20:48.194Z,25.32
2022-09-01T14:23:19.013Z,25.30
2022-09-01T14:25:53.731Z,25.18
2022-09-01T14:28:25.012Z,25.18
2022-09-01T14:33:24.731Z,25.00
2022-09-01T14:35:54.661Z,24.95
2022-09-01T14:38:24.535Z,24.90
2022-09-01T14:40:55.929Z,24.95
2022-09-01T14:43:27.017Z,24.88
2022-09-01T14:46:07.916Z,24.93
2022-09-01T14:48:38.796Z,24.87
2022-09-01T14:51:10.415Z,24.80
2022-09-01T14:53:40.274Z,24.78
2022-09-01T14:56:11.617Z,24.77
2022-09-01T14:58:42.593Z,24.84
2022-09-01T15:01:33.318Z,24.82
2022-09-01T15:04:02.574Z,24.73
2022-09-01T15:06:32.453Z,24.70
2022-09-01T15:09:03.634Z,24.68
2022-09-01T15:11:35.851Z,24.58
2022-09-01T15:14:14.075Z,24.56
2022-09-01T15:16:43.993Z,24.46
2022-09-01T15:19:15.695Z,24.33
2022-09-01T15:21:48.274Z,24.22
2022-09-01T15:24:18.999Z,23.98
2022-09-01T15:26:50.515Z,23.85
2022-09-01T15:29:20.574Z,23.62
2022-09-01T15:31:51.945Z,23.47
2022-09-01T15:34:22.033Z,23.42
2022-09-01T15:36:51.890Z,23.31
2022-09-01T15:39:21.753Z,23.20
2022-09-01T15:41:54.294Z,23.14
2022-09-01T15:44:25.072Z,23.08
2022-09-01T15:46:54.921Z,23.15
2022-09-01T15:49:24.875Z,23.20
2022-09-01T15:53:22.613Z,23.32
2022-09-01T15:55:52.475Z,23.31
2022-09-01T15:58:24.725Z,23.20
2022-09-01T16:01:00.974Z,23.20
2022-09-01T16:03:32.295Z,23.19
2022-09-01T16:06:03.870Z,23.14
2022-09-01T16:08:36.614Z,23.11
2022-09-01T16:11:12.314Z,23.04
2022-09-01T16:13:44.697Z,22.86
2022-09-01T16:16:31.230Z,22.78
2022-09-01T16:19:08.212Z,22.66
2022-09-01T16:21:48.491Z,22.53
2022-09-01T16:24:19.934Z,22.41
2022-09-01T16:26:51.574Z,22.29
2022-09-01T16:29:30.859Z,22.13
2022-09-01T16:32:01.014Z,22.11
2022-09-01T16:34:32.450Z,22.07
2022-09-01T16:37:12.190Z,22.04
2022-09-01T16:39:50.330Z,22.03
2022-09-01T16:42:29.573Z,21.99
2022-09-01T16:45:09.018Z,21.94
2022-09-01T16:48:02.490Z,21.96
2022-09-01T16:50:44.872Z,21.90
2022-09-01T16:53:30.568Z,21.80
2022-09-01T16:56:11.053Z,21.77
2022-09-01T16:58:52.342Z,21.68
2022-09-01T17:01:37.423Z,21.68
2022-09-01T17:04:26.913Z,21.68
2022-09-01T17:07:06.219Z,21.56
2022-09-01T17:09:42.830Z,21.49
2022-09-01T17:12:37.730Z,21.47
2022-09-01T17:15:13.245Z,21.43
2022-09-01T17:17:48.651Z,21.43
2022-09-01T17:20:19.611Z,21.39
2022-09-01T17:22:54.571Z,21.29
2022-09-01T17:25:32.991Z,21.23
2022-09-01T17:28:10.933Z,21.19
2022-09-01T17:30:51.602Z,21.13
2022-09-01T17:33:29.470Z,21.13
2022-09-01T17:36:18.313Z,21.10
2022-09-01T17:38:57.394Z,20.97
2022-09-01T17:41:38.637Z,20.95
2022-09-01T17:44:24.696Z,20.90
2022-09-01T17:47:12.910Z,20.73
2022-09-01T17:49:55.903Z,20.58
2022-09-01T17:52:42.095Z,20.53
2022-09-01T17:55:27.458Z,20.41
2022-09-01T17:58:05.175Z,20.20
2022-09-01T18:00:44.896Z,20.05
2022-09-01T18:03:38.596Z,19.90
2022-09-01T18:06:14.738Z,19.84
2022-09-01T18:08:47.431Z,20.18
2022-09-01T18:11:21.754Z,20.50
2022-09-01T18:13:57.618Z,20.73
2022-09-01T18:16:34.920Z,20.88
2022-09-01T18:19:09.259Z,20.96
2022-09-01T18:21:49.713Z,20.99
2022-09-01T18:24:24.204Z,21.00
2022-09-01T18:26:54.971Z,20.94
2022-09-01T18:29:30.065Z,20.89
2022-09-01T18:32:18.439Z,20.77
2022-09-01T18:35:13.945Z,20.59
2022-09-01T18:38:04.888Z,20.48
2022-09-01T18:40:46.905Z,20.45
2022-09-01T18:43:27.318Z,20.52
2022-09-01T18:46:03.386Z,20.59
2022-09-01T18:48:56.616Z,20.63
2022-09-01T18:53:37.833Z,20.61
2022-09-01T18:56:22.498Z,20.59
2022-09-01T18:59:07.685Z,20.60
2022-09-01T19:01:45.121Z,20.62
2022-09-01T19:04:26.992Z,20.61
2022-09-01T19:07:09.775Z,20.63
2022-09-01T19:09:50.470Z,20.63
2022-09-01T19:12:33.796Z,20.58
2022-09-01T19:15:12.216Z,20.52
2022-09-01T19:18:13.836Z,20.55
2022-09-01T19:20:52.936Z,20.59
2022-09-01T19:23:36.267Z,20.60
2022-09-01T19:26:21.725Z,20.63
2022-09-01T19:28:55.580Z,20.62
2022-09-01T19:31:30.469Z,20.61
2022-09-01T19:34:05.570Z,20.59
2022-09-01T19:36:42.058Z,20.58
2022-09-01T19:39:16.672Z,20.53
2022-09-01T19:41:54.173Z,20.48
2022-09-01T19:44:35.314Z,20.42
2022-09-01T19:47:14.995Z,20.38
2022-09-01T19:49:50.891Z,20.35
2022-09-01T19:52:34.155Z,20.32
2022-09-01T19:55:10.934Z,20.29
2022-09-01T19:57:48.496Z,20.28
2022-09-01T20:00:25.572Z,20.23
2022-09-01T20:03:06.275Z,20.14
2022-09-01T20:05:45.734Z,20.09
2022-09-01T20:08:24.231Z,20.01
2022-09-01T20:11:01.576Z,20.00
2022-09-01T20:14:00.711Z,20.01
2022-09-01T20:16:38.821Z,19.90
2022-09-01T20:19:16.683Z,19.80
2022-09-01T20:21:49.533Z,19.65
2022-09-01T20:24:30.733Z,19.60
2022-09-01T20:27:07.172Z,19.61
2022-09-01T20:29:49.217Z,19.66
2022-09-01T20:32:30.692Z,19.62
2022-09-01T20:35:08.443Z,19.62
2022-09-01T20:37:45.070Z,19.55
2022-09-01T20:40:19.857Z,19.54
2022-09-01T20:43:03.463Z,19.57
2022-09-01T20:45:35.375Z,19.57
2022-09-01T20:48:11.224Z,19.55
2022-09-01T20:50:50.594Z,19.55
2022-09-01T20:53:44.114Z,19.59
2022-09-01T20:56:24.085Z,19.62
2022-09-01T20:59:02.055Z,19.65
2022-09-01T21:01:41.446Z,19.69
2022-09-01T21:04:30.535Z,19.71
2022-09-01T21:07:06.778Z,19.72
2022-09-01T21:09:48.811Z,19.67
2022-09-01T21:12:31.370Z,19.66
2022-09-01T21:15:15.503Z,19.60
2022-09-01T21:17:54.895Z,19.58
2022-09-01T21:20:36.573Z,19.59
2022-09-01T21:23:06.891Z,19.54
2022-09-01T21:25:36.836Z,19.45
2022-09-01T21:28:08.954Z,19.43
2022-09-01T21:30:39.113Z,19.45
2022-09-01T21:33:10.637Z,19.47
2022-09-01T21:35:40.550Z,19.45
2022-09-01T21:38:10.741Z,19.47
2022-09-01T21:40:40.907Z,19.53
2022-09-01T21:43:17.687Z,19.53
2022-09-01T21:45:48.607Z,19.47
2022-09-01T21:48:20.094Z,19.42
2022-09-01T21:53:22.153Z,19.42
2022-09-01T21:55:52.403Z,19.42
2022-09-01T21:58:22.231Z,19.39
2022-09-01T22:00:52.754Z,19.38
2022-09-01T22:03:22.898Z,19.38
2022-09-01T22:05:53.024Z,19.42
2022-09-01T22:08:24.549Z,19.37
2022-09-01T22:10:56.829Z,19.33
2022-09-01T22:13:28.076Z,19.35
2022-09-01T22:15:58.093Z,19.35
2022-09-01T22:18:28.155Z,19.35
2022-09-01T22:21:05.989Z,19.37
2022-09-01T22:23:38.554Z,19.37
2022-09-01T22:26:13.631Z,19.37
2022-09-01T22:28:45.177Z,19.40
2022-09-01T22:31:16.932Z,19.40
2022-09-01T22:33:48.109Z,19.35
2022-09-01T22:36:23.809Z,19.34
2022-09-01T22:38:56.050Z,19.36
2022-09-01T22:41:28.450Z,19.33
2022-09-01T22:43:59.761Z,19.28
2022-09-01T22:46:30.270Z,19.34
2022-09-01T22:49:01.394Z,19.34
2022-09-01T22:51:31.509Z,19.21
2022-09-01T22:54:02.933Z,19.20
2022-09-01T22:56:36.142Z,19.19
2022-09-01T22:59:10.301Z,19.13
2022-09-01T23:01:43.652Z,19.10
2022-09-01T23:04:16.594Z,19.10
2022-09-01T23:06:51.993Z,19.09
2022-09-01T23:09:24.781Z,19.11
2022-09-01T23:11:54.610Z,19.11
2022-09-01T23:14:24.537Z,19.11
2022-09-01T23:16:54.431Z,19.13
2022-09-01T23:19:26.185Z,19.15
2022-09-01T23:21:56.233Z,19.16
2022-09-01T23:24:27.573Z,19.14
2022-09-01T23:26:57.721Z,19.04
2022-09-01T23:29:27.459Z,18.94
2022-09-01T23:31:59.100Z,18.78
2022-09-01T23:34:28.849Z,18.69
2022-09-01T23:36:58.790Z,18.68
2022-09-01T23:39:30.149Z,18.61
2022-09-01T23:42:00.307Z,18.59
2022-09-01T23:44:30.470Z,18.50
2022-09-01T23:47:00.255Z,18.48
2022-09-01T23:49:30.297Z,18.51
2022-09-01T23:52:00.457Z,18.47
2022-09-01T23:54:31.910Z,18.48
2022-09-01T23:57:01.973Z,18.46
2022-09-01T23:59:31.914Z,18.37
